Saipan, MP

12:55 AM ChST on March 01, 2015 (GMT +1000)
Saipan International | Change Station
CLOSE
Current Station
Airport
Location: Saipan,
Elevation: 213 ft
Nearby Weather Stations

Elev 213 ft 15.12 °N, 145.73 °E | Updated 1 hour ago

Scattered Clouds
Scattered Clouds
78 °F
Feels Like 78 °F
N
15
Wind Variable Wind from NE

Today
High -- | Low -- °F
--% Chance of Precip.
Yesterday
High -- | Low -- °F
Precip. -- in
6:34 AM 6:24 PM
Waxing Gibbous, 78% visible
Pressure 30.01 in
Visibility 10.0 miles
Clouds Scattered Clouds 2300 ft
Dew Point 72 °F
Humidity 81%
Rainfall 0.16 in
Snow Depth Not available.
UV 0 out of 12
Pollen Not available.
Air Quality Not available.
Flu Activity Not available.
METAR PGSN 281354Z 05013KT 10SM SCT023 26/22 A2995 RMK AO2 SLP163 T02560222 403000233

More Conditions Fewer Conditions

Pressure 30.01 in
Visibility 10.0 miles
Clouds Scattered Clouds 2300 ft
Dew Point 72 °F
Humidity 81%
Rainfall 0.16 in
Snow Depth Not available.
UV 0 out of 12
Pollen Not available.
Air Quality Not available.
Flu Activity Not available.
METAR PGSN 281354Z 05013KT 10SM SCT023 26/22 A2995 RMK AO2 SLP163 T02560222 403000233

More Conditions Fewer Conditions

10-Day Weather Forecast

Almanac

Astronomy

Mar. 01, 2015 Rise Set
Actual Time
Civil Twilight
Nautical Twilight
Astronomical Twilight
Moon
Length of Visible Light
Length of Day
Tomorrow will be .
, % of the Moon is Illuminated

Today's Extremes

State Highs State Lows

Community

WunderPhotos

Upload Photos

1,801,025 photos uploaded!

WunderBlogs® & News

Nearby

Air Quality

  Air Quality AQ Index Pollutant
Not available.

Snow Depth

Station Depth Elevation

Earthquake Activity

City Distance Mag. Time & Date
Minimum magnitude displayed is 2.5.

Coastal Water Temperatures

Place Temperature

Nearby Weather Stations